sensor_id;sensor_type;location;lat;lon;timestamp;P1;durP1;ratioP1;P2;durP2;ratioP2
16804;SDS011;8520;50.102;20.010;2023-10-13T00:01:48;92.38;;;86.35;;
16804;SDS011;8520;50.102;20.010;2023-10-13T00:04:18;91.93;;;86.05;;
16804;SDS011;8520;50.102;20.010;2023-10-13T00:06:50;92.20;;;86.05;;
16804;SDS011;8520;50.102;20.010;2023-10-13T00:09:18;91.57;;;85.82;;
16804;SDS011;8520;50.102;20.010;2023-10-13T00:11:51;91.60;;;85.55;;
16804;SDS011;8520;50.102;20.010;2023-10-13T00:14:21;91.07;;;85.50;;
16804;SDS011;8520;50.102;20.010;2023-10-13T00:16:57;91.15;;;85.43;;
16804;SDS011;8520;50.102;20.010;2023-10-13T00:19:33;92.13;;;86.13;;
16804;SDS011;8520;50.102;20.010;2023-10-13T00:22:06;91.22;;;85.07;;
16804;SDS011;8520;50.102;20.010;2023-10-13T00:24:37;90.30;;;84.32;;
16804;SDS011;8520;50.102;20.010;2023-10-13T00:27:10;90.88;;;85.20;;
16804;SDS011;8520;50.102;20.010;2023-10-13T00:29:57;91.93;;;86.00;;
16804;SDS011;8520;50.102;20.010;2023-10-13T00:32:49;92.18;;;86.07;;
16804;SDS011;8520;50.102;20.010;2023-10-13T00:35:22;92.95;;;86.80;;
16804;SDS011;8520;50.102;20.010;2023-10-13T00:37:55;92.57;;;86.45;;
16804;SDS011;8520;50.102;20.010;2023-10-13T00:40:24;91.63;;;85.55;;
16804;SDS011;8520;50.102;20.010;2023-10-13T00:43:06;90.97;;;84.97;;
16804;SDS011;8520;50.102;20.010;2023-10-13T00:45:51;92.28;;;86.28;;
16804;SDS011;8520;50.102;20.010;2023-10-13T00:48:24;90.75;;;84.75;;
16804;SDS011;8520;50.102;20.010;2023-10-13T00:50:56;91.15;;;85.28;;
16804;SDS011;8520;50.102;20.010;2023-10-13T00:53:26;89.20;;;83.45;;
16804;SDS011;8520;50.102;20.010;2023-10-13T00:55:55;90.40;;;84.72;;
16804;SDS011;8520;50.102;20.010;2023-10-13T00:58:23;89.60;;;83.78;;
16804;SDS011;8520;50.102;20.010;2023-10-13T01:00:55;88.70;;;83.03;;
16804;SDS011;8520;50.102;20.010;2023-10-13T01:03:45;89.40;;;83.50;;
16804;SDS011;8520;50.102;20.010;2023-10-13T01:06:12;87.35;;;81.82;;
16804;SDS011;8520;50.102;20.010;2023-10-13T01:08:40;87.95;;;81.95;;
16804;SDS011;8520;50.102;20.010;2023-10-13T01:11:08;87.20;;;81.28;;
16804;SDS011;8520;50.102;20.010;2023-10-13T01:13:37;86.72;;;81.03;;
16804;SDS011;8520;50.102;20.010;2023-10-13T01:16:06;86.90;;;81.35;;
16804;SDS011;8520;50.102;20.010;2023-10-13T01:18:34;87.45;;;81.35;;
16804;SDS011;8520;50.102;20.010;2023-10-13T01:21:15;85.63;;;80.30;;
16804;SDS011;8520;50.102;20.010;2023-10-13T01:23:48;84.15;;;78.68;;
16804;SDS011;8520;50.102;20.010;2023-10-13T01:26:17;84.60;;;79.25;;
16804;SDS011;8520;50.102;20.010;2023-10-13T01:28:51;84.57;;;79.18;;
16804;SDS011;8520;50.102;20.010;2023-10-13T01:31:18;84.35;;;79.13;;
16804;SDS011;8520;50.102;20.010;2023-10-13T01:33:54;84.82;;;79.35;;
16804;SDS011;8520;50.102;20.010;2023-10-13T01:36:24;85.85;;;80.45;;
16804;SDS011;8520;50.102;20.010;2023-10-13T01:38:54;85.43;;;80.03;;
16804;SDS011;8520;50.102;20.010;2023-10-13T01:41:21;86.10;;;80.70;;
16804;SDS011;8520;50.102;20.010;2023-10-13T01:43:49;87.13;;;81.47;;
16804;SDS011;8520;50.102;20.010;2023-10-13T01:46:17;88.88;;;83.00;;
16804;SDS011;8520;50.102;20.010;2023-10-13T01:48:46;88.70;;;82.93;;
16804;SDS011;8520;50.102;20.010;2023-10-13T01:51:15;88.47;;;82.93;;
16804;SDS011;8520;50.102;20.010;2023-10-13T01:53:41;88.88;;;83.18;;
16804;SDS011;8520;50.102;20.010;2023-10-13T01:56:11;91.07;;;84.95;;
16804;SDS011;8520;50.102;20.010;2023-10-13T01:58:40;91.93;;;86.07;;
16804;SDS011;8520;50.102;20.010;2023-10-13T02:01:09;90.35;;;84.50;;
16804;SDS011;8520;50.102;20.010;2023-10-13T02:03:38;91.10;;;85.18;;
16804;SDS011;8520;50.102;20.010;2023-10-13T02:06:12;90.30;;;84.88;;
16804;SDS011;8520;50.102;20.010;2023-10-13T02:08:44;93.55;;;87.43;;
16804;SDS011;8520;50.102;20.010;2023-10-13T02:11:15;91.30;;;85.40;;
16804;SDS011;8520;50.102;20.010;2023-10-13T02:13:45;92.80;;;87.15;;
16804;SDS011;8520;50.102;20.010;2023-10-13T02:16:17;91.50;;;85.43;;
16804;SDS011;8520;50.102;20.010;2023-10-13T02:18:49;91.60;;;85.85;;
16804;SDS011;8520;50.102;20.010;2023-10-13T02:21:19;91.15;;;85.30;;
16804;SDS011;8520;50.102;20.010;2023-10-13T02:23:48;92.40;;;86.60;;
16804;SDS011;8520;50.102;20.010;2023-10-13T02:26:28;92.93;;;87.20;;
16804;SDS011;8520;50.102;20.010;2023-10-13T02:28:58;92.50;;;86.60;;
16804;SDS011;8520;50.102;20.010;2023-10-13T02:31:27;92.50;;;86.80;;
16804;SDS011;8520;50.102;20.010;2023-10-13T02:33:55;92.85;;;87.00;;
16804;SDS011;8520;50.102;20.010;2023-10-13T02:36:23;93.55;;;87.45;;
16804;SDS011;8520;50.102;20.010;2023-10-13T02:39:03;96.07;;;89.97;;
16804;SDS011;8520;50.102;20.010;2023-10-13T02:41:35;94.78;;;88.82;;
16804;SDS011;8520;50.102;20.010;2023-10-13T02:44:04;97.22;;;90.75;;
16804;SDS011;8520;50.102;20.010;2023-10-13T02:46:33;96.93;;;91.07;;
16804;SDS011;8520;50.102;20.010;2023-10-13T02:49:03;98.18;;;91.97;;
16804;SDS011;8520;50.102;20.010;2023-10-13T02:51:38;98.28;;;92.20;;
16804;SDS011;8520;50.102;20.010;2023-10-13T02:54:08;98.40;;;92.35;;
16804;SDS011;8520;50.102;20.010;2023-10-13T02:56:39;98.32;;;92.18;;
16804;SDS011;8520;50.102;20.010;2023-10-13T02:59:15;98.97;;;92.80;;
16804;SDS011;8520;50.102;20.010;2023-10-13T03:01:46;98.53;;;92.43;;
16804;SDS011;8520;50.102;20.010;2023-10-13T03:04:13;99.20;;;92.93;;
16804;SDS011;8520;50.102;20.010;2023-10-13T03:06:50;100.60;;;94.10;;
16804;SDS011;8520;50.102;20.010;2023-10-13T03:09:17;99.87;;;93.50;;
16804;SDS011;8520;50.102;20.010;2023-10-13T03:11:47;102.15;;;95.70;;
16804;SDS011;8520;50.102;20.010;2023-10-13T03:14:15;102.73;;;96.13;;
16804;SDS011;8520;50.102;20.010;2023-10-13T03:16:52;102.30;;;95.50;;
16804;SDS011;8520;50.102;20.010;2023-10-13T03:19:20;102.93;;;96.32;;
16804;SDS011;8520;50.102;20.010;2023-10-13T03:21:49;104.63;;;97.77;;
16804;SDS011;8520;50.102;20.010;2023-10-13T03:24:21;106.13;;;99.33;;
16804;SDS011;8520;50.102;20.010;2023-10-13T03:27:01;108.80;;;101.30;;
16804;SDS011;8520;50.102;20.010;2023-10-13T03:29:35;108.57;;;101.57;;
16804;SDS011;8520;50.102;20.010;2023-10-13T03:32:03;108.23;;;101.07;;
16804;SDS011;8520;50.102;20.010;2023-10-13T03:34:38;109.53;;;102.23;;
16804;SDS011;8520;50.102;20.010;2023-10-13T03:37:16;109.13;;;101.67;;
16804;SDS011;8520;50.102;20.010;2023-10-13T03:39:46;106.40;;;99.55;;
16804;SDS011;8520;50.102;20.010;2023-10-13T03:42:16;107.13;;;99.83;;
16804;SDS011;8520;50.102;20.010;2023-10-13T03:44:46;107.87;;;100.63;;
16804;SDS011;8520;50.102;20.010;2023-10-13T03:47:14;108.10;;;100.57;;
16804;SDS011;8520;50.102;20.010;2023-10-13T03:49:54;108.67;;;101.37;;
16804;SDS011;8520;50.102;20.010;2023-10-13T03:52:41;109.80;;;102.23;;
16804;SDS011;8520;50.102;20.010;2023-10-13T03:55:11;108.40;;;101.20;;
16804;SDS011;8520;50.102;20.010;2023-10-13T03:57:46;107.17;;;100.17;;
16804;SDS011;8520;50.102;20.010;2023-10-13T04:00:16;106.73;;;99.60;;
16804;SDS011;8520;50.102;20.010;2023-10-13T04:02:51;107.70;;;100.53;;
16804;SDS011;8520;50.102;20.010;2023-10-13T04:05:33;105.72;;;98.78;;
16804;SDS011;8520;50.102;20.010;2023-10-13T04:08:11;108.60;;;100.97;;
16804;SDS011;8520;50.102;20.010;2023-10-13T04:10:59;107.57;;;100.33;;
16804;SDS011;8520;50.102;20.010;2023-10-13T04:13:46;106.75;;;99.88;;
16804;SDS011;8520;50.102;20.010;2023-10-13T04:16:31;108.30;;;100.57;;
16804;SDS011;8520;50.102;20.010;2023-10-13T04:19:02;105.85;;;98.85;;
16804;SDS011;8520;50.102;20.010;2023-10-13T04:21:48;105.67;;;98.80;;
16804;SDS011;8520;50.102;20.010;2023-10-13T04:24:41;107.13;;;100.03;;
16804;SDS011;8520;50.102;20.010;2023-10-13T04:27:31;106.53;;;99.13;;
16804;SDS011;8520;50.102;20.010;2023-10-13T04:30:22;105.50;;;98.40;;
16804;SDS011;8520;50.102;20.010;2023-10-13T04:32:54;105.45;;;98.75;;
16804;SDS011;8520;50.102;20.010;2023-10-13T04:35:44;107.87;;;100.53;;
16804;SDS011;8520;50.102;20.010;2023-10-13T04:38:24;106.60;;;99.60;;
16804;SDS011;8520;50.102;20.010;2023-10-13T04:41:00;107.40;;;100.28;;
16804;SDS011;8520;50.102;20.010;2023-10-13T04:43:28;106.60;;;99.53;;
16804;SDS011;8520;50.102;20.010;2023-10-13T04:46:23;107.07;;;99.90;;
16804;SDS011;8520;50.102;20.010;2023-10-13T04:49:21;108.23;;;100.87;;
16804;SDS011;8520;50.102;20.010;2023-10-13T04:51:55;107.20;;;99.95;;
16804;SDS011;8520;50.102;20.010;2023-10-13T04:54:26;105.37;;;98.33;;
16804;SDS011;8520;50.102;20.010;2023-10-13T04:57:00;108.03;;;99.90;;
16804;SDS011;8520;50.102;20.010;2023-10-13T04:59:42;107.72;;;100.25;;
16804;SDS011;8520;50.102;20.010;2023-10-13T05:02:29;109.03;;;101.67;;
16804;SDS011;8520;50.102;20.010;2023-10-13T05:05:11;107.37;;;100.30;;
16804;SDS011;8520;50.102;20.010;2023-10-13T05:07:56;107.50;;;100.40;;
16804;SDS011;8520;50.102;20.010;2023-10-13T05:10:42;110.18;;;102.47;;
16804;SDS011;8520;50.102;20.010;2023-10-13T05:13:30;110.43;;;102.83;;
16804;SDS011;8520;50.102;20.010;2023-10-13T05:16:15;112.28;;;104.75;;
16804;SDS011;8520;50.102;20.010;2023-10-13T05:19:02;109.57;;;102.03;;
16804;SDS011;8520;50.102;20.010;2023-10-13T05:21:48;109.67;;;102.37;;
16804;SDS011;8520;50.102;20.010;2023-10-13T05:24:33;110.53;;;102.88;;
16804;SDS011;8520;50.102;20.010;2023-10-13T05:27:19;109.95;;;102.45;;
16804;SDS011;8520;50.102;20.010;2023-10-13T05:30:05;108.57;;;101.20;;
16804;SDS011;8520;50.102;20.010;2023-10-13T05:32:50;107.10;;;99.65;;
16804;SDS011;8520;50.102;20.010;2023-10-13T05:35:37;107.53;;;100.28;;
16804;SDS011;8520;50.102;20.010;2023-10-13T05:38:23;106.15;;;98.68;;
16804;SDS011;8520;50.102;20.010;2023-10-13T05:41:08;104.57;;;97.47;;
16804;SDS011;8520;50.102;20.010;2023-10-13T05:43:54;104.90;;;98.05;;
16804;SDS011;8520;50.102;20.010;2023-10-13T05:46:39;105.85;;;98.57;;
16804;SDS011;8520;50.102;20.010;2023-10-13T05:49:28;105.27;;;97.80;;
16804;SDS011;8520;50.102;20.010;2023-10-13T05:52:15;101.75;;;95.00;;
16804;SDS011;8520;50.102;20.010;2023-10-13T05:55:01;103.35;;;96.45;;
16804;SDS011;8520;50.102;20.010;2023-10-13T05:57:46;102.47;;;95.28;;
16804;SDS011;8520;50.102;20.010;2023-10-13T06:00:37;101.75;;;94.32;;
16804;SDS011;8520;50.102;20.010;2023-10-13T06:03:23;102.07;;;94.95;;
16804;SDS011;8520;50.102;20.010;2023-10-13T06:06:08;99.40;;;92.68;;
16804;SDS011;8520;50.102;20.010;2023-10-13T06:08:55;101.22;;;93.88;;
16804;SDS011;8520;50.102;20.010;2023-10-13T06:11:41;100.57;;;93.78;;
16804;SDS011;8520;50.102;20.010;2023-10-13T06:14:26;99.43;;;92.15;;
16804;SDS011;8520;50.102;20.010;2023-10-13T06:17:11;98.97;;;92.13;;
16804;SDS011;8520;50.102;20.010;2023-10-13T06:19:57;98.13;;;91.40;;
16804;SDS011;8520;50.102;20.010;2023-10-13T06:22:47;96.50;;;90.00;;
16804;SDS011;8520;50.102;20.010;2023-10-13T06:25:34;97.15;;;90.38;;
16804;SDS011;8520;50.102;20.010;2023-10-13T06:28:20;96.43;;;89.95;;
16804;SDS011;8520;50.102;20.010;2023-10-13T06:31:05;97.70;;;91.18;;
16804;SDS011;8520;50.102;20.010;2023-10-13T06:33:33;95.43;;;89.10;;
16804;SDS011;8520;50.102;20.010;2023-10-13T06:36:02;93.53;;;87.00;;
16804;SDS011;8520;50.102;20.010;2023-10-13T06:38:36;94.18;;;87.35;;
16804;SDS011;8520;50.102;20.010;2023-10-13T06:41:06;93.40;;;86.82;;
16804;SDS011;8520;50.102;20.010;2023-10-13T06:43:34;96.57;;;89.60;;
16804;SDS011;8520;50.102;20.010;2023-10-13T06:46:06;92.55;;;85.82;;
16804;SDS011;8520;50.102;20.010;2023-10-13T06:48:41;93.95;;;86.65;;
16804;SDS011;8520;50.102;20.010;2023-10-13T06:51:10;94.05;;;87.18;;
16804;SDS011;8520;50.102;20.010;2023-10-13T06:53:44;91.90;;;85.35;;
16804;SDS011;8520;50.102;20.010;2023-10-13T06:56:15;91.63;;;85.13;;
16804;SDS011;8520;50.102;20.010;2023-10-13T06:58:54;94.65;;;87.55;;
16804;SDS011;8520;50.102;20.010;2023-10-13T07:01:26;92.60;;;85.85;;
16804;SDS011;8520;50.102;20.010;2023-10-13T07:03:55;92.85;;;85.88;;
16804;SDS011;8520;50.102;20.010;2023-10-13T07:06:28;92.32;;;85.93;;
16804;SDS011;8520;50.102;20.010;2023-10-13T07:08:58;92.90;;;86.50;;
16804;SDS011;8520;50.102;20.010;2023-10-13T07:11:32;94.05;;;87.43;;
16804;SDS011;8520;50.102;20.010;2023-10-13T07:14:01;93.47;;;86.97;;
16804;SDS011;8520;50.102;20.010;2023-10-13T07:16:42;95.78;;;89.25;;
16804;SDS011;8520;50.102;20.010;2023-10-13T07:19:13;94.95;;;88.78;;
16804;SDS011;8520;50.102;20.010;2023-10-13T07:21:48;95.38;;;89.13;;
16804;SDS011;8520;50.102;20.010;2023-10-13T07:24:16;96.82;;;90.00;;
16804;SDS011;8520;50.102;20.010;2023-10-13T07:26:45;91.07;;;84.93;;
16804;SDS011;8520;50.102;20.010;2023-10-13T07:29:14;85.68;;;80.07;;
16804;SDS011;8520;50.102;20.010;2023-10-13T07:31:42;86.05;;;79.97;;
16804;SDS011;8520;50.102;20.010;2023-10-13T07:34:12;77.25;;;72.07;;
16804;SDS011;8520;50.102;20.010;2023-10-13T07:36:52;76.82;;;72.10;;
16804;SDS011;8520;50.102;20.010;2023-10-13T07:39:21;74.85;;;69.80;;
16804;SDS011;8520;50.102;20.010;2023-10-13T07:41:52;72.15;;;67.45;;
16804;SDS011;8520;50.102;20.010;2023-10-13T07:44:30;72.10;;;67.15;;
16804;SDS011;8520;50.102;20.010;2023-10-13T07:47:00;70.07;;;65.40;;
16804;SDS011;8520;50.102;20.010;2023-10-13T07:49:31;66.65;;;62.70;;
16804;SDS011;8520;50.102;20.010;2023-10-13T07:52:00;67.80;;;63.00;;
16804;SDS011;8520;50.102;20.010;2023-10-13T07:54:42;66.85;;;62.78;;
16804;SDS011;8520;50.102;20.010;2023-10-13T07:57:12;66.95;;;62.63;;
16804;SDS011;8520;50.102;20.010;2023-10-13T07:59:41;67.35;;;62.88;;
16804;SDS011;8520;50.102;20.010;2023-10-13T08:02:14;64.95;;;61.13;;
16804;SDS011;8520;50.102;20.010;2023-10-13T08:05:05;65.78;;;61.72;;
16804;SDS011;8520;50.102;20.010;2023-10-13T08:07:41;65.95;;;61.33;;
16804;SDS011;8520;50.102;20.010;2023-10-13T08:10:09;62.90;;;59.13;;
16804;SDS011;8520;50.102;20.010;2023-10-13T08:12:44;62.60;;;58.45;;
16804;SDS011;8520;50.102;20.010;2023-10-13T08:15:12;60.60;;;56.15;;
16804;SDS011;8520;50.102;20.010;2023-10-13T08:17:48;58.20;;;54.70;;
16804;SDS011;8520;50.102;20.010;2023-10-13T08:20:18;56.42;;;53.00;;
16804;SDS011;8520;50.102;20.010;2023-10-13T08:22:48;53.78;;;50.50;;
16804;SDS011;8520;50.102;20.010;2023-10-13T08:25:36;51.78;;;48.92;;
16804;SDS011;8520;50.102;20.010;2023-10-13T08:28:19;50.72;;;47.55;;
16804;SDS011;8520;50.102;20.010;2023-10-13T08:31:23;49.97;;;46.72;;
16804;SDS011;8520;50.102;20.010;2023-10-13T08:33:53;47.60;;;44.47;;
16804;SDS011;8520;50.102;20.010;2023-10-13T08:36:32;46.88;;;43.72;;
16804;SDS011;8520;50.102;20.010;2023-10-13T08:39:04;42.05;;;39.75;;
16804;SDS011;8520;50.102;20.010;2023-10-13T08:42:03;42.00;;;39.45;;
16804;SDS011;8520;50.102;20.010;2023-10-13T08:44:41;39.10;;;36.90;;
16804;SDS011;8520;50.102;20.010;2023-10-13T08:47:12;38.97;;;36.15;;
16804;SDS011;8520;50.102;20.010;2023-10-13T08:49:45;35.42;;;33.28;;
16804;SDS011;8520;50.102;20.010;2023-10-13T08:52:17;35.08;;;33.03;;
16804;SDS011;8520;50.102;20.010;2023-10-13T08:55:01;34.60;;;32.33;;
16804;SDS011;8520;50.102;20.010;2023-10-13T08:58:00;35.75;;;33.35;;
16804;SDS011;8520;50.102;20.010;2023-10-13T09:00:42;36.60;;;33.95;;
16804;SDS011;8520;50.102;20.010;2023-10-13T09:03:28;37.58;;;34.85;;
16804;SDS011;8520;50.102;20.010;2023-10-13T09:05:56;34.67;;;32.13;;
16804;SDS011;8520;50.102;20.010;2023-10-13T09:08:33;35.55;;;33.05;;
16804;SDS011;8520;50.102;20.010;2023-10-13T09:11:11;34.28;;;32.08;;
16804;SDS011;8520;50.102;20.010;2023-10-13T09:13:39;30.35;;;28.27;;
16804;SDS011;8520;50.102;20.010;2023-10-13T09:16:15;29.40;;;27.50;;
16804;SDS011;8520;50.102;20.010;2023-10-13T09:19:06;31.08;;;28.77;;
16804;SDS011;8520;50.102;20.010;2023-10-13T09:21:38;29.33;;;27.55;;
16804;SDS011;8520;50.102;20.010;2023-10-13T09:24:21;28.02;;;26.23;;
16804;SDS011;8520;50.102;20.010;2023-10-13T09:26:54;28.02;;;25.52;;
16804;SDS011;8520;50.102;20.010;2023-10-13T09:29:23;21.20;;;19.92;;
16804;SDS011;8520;50.102;20.010;2023-10-13T09:32:02;19.92;;;18.40;;
16804;SDS011;8520;50.102;20.010;2023-10-13T09:34:31;19.20;;;18.02;;
16804;SDS011;8520;50.102;20.010;2023-10-13T09:37:02;19.90;;;18.60;;
16804;SDS011;8520;50.102;20.010;2023-10-13T09:39:31;19.85;;;18.48;;
16804;SDS011;8520;50.102;20.010;2023-10-13T09:42:08;18.70;;;17.50;;
16804;SDS011;8520;50.102;20.010;2023-10-13T09:44:39;18.92;;;17.63;;
16804;SDS011;8520;50.102;20.010;2023-10-13T09:47:10;18.95;;;17.75;;
16804;SDS011;8520;50.102;20.010;2023-10-13T09:49:44;19.48;;;18.05;;
16804;SDS011;8520;50.102;20.010;2023-10-13T09:52:16;19.85;;;18.40;;
16804;SDS011;8520;50.102;20.010;2023-10-13T09:54:50;19.48;;;18.08;;
16804;SDS011;8520;50.102;20.010;2023-10-13T09:57:27;19.35;;;17.98;;
16804;SDS011;8520;50.102;20.010;2023-10-13T09:59:57;19.50;;;18.05;;
16804;SDS011;8520;50.102;20.010;2023-10-13T10:02:41;19.00;;;17.67;;
16804;SDS011;8520;50.102;20.010;2023-10-13T10:05:11;19.13;;;17.90;;
16804;SDS011;8520;50.102;20.010;2023-10-13T10:07:54;20.65;;;19.15;;
16804;SDS011;8520;50.102;20.010;2023-10-13T10:10:21;20.73;;;19.42;;
16804;SDS011;8520;50.102;20.010;2023-10-13T10:12:50;20.98;;;19.65;;
16804;SDS011;8520;50.102;20.010;2023-10-13T10:15:20;18.27;;;16.83;;
16804;SDS011;8520;50.102;20.010;2023-10-13T10:17:56;17.33;;;16.15;;
16804;SDS011;8520;50.102;20.010;2023-10-13T10:20:33;16.95;;;15.75;;
16804;SDS011;8520;50.102;20.010;2023-10-13T10:23:09;17.98;;;16.75;;
16804;SDS011;8520;50.102;20.010;2023-10-13T10:25:44;16.48;;;15.48;;
16804;SDS011;8520;50.102;20.010;2023-10-13T10:28:13;16.08;;;15.07;;
16804;SDS011;8520;50.102;20.010;2023-10-13T10:30:42;16.17;;;15.02;;
16804;SDS011;8520;50.102;20.010;2023-10-13T10:33:12;16.50;;;15.40;;
16804;SDS011;8520;50.102;20.010;2023-10-13T10:35:43;17.15;;;15.95;;
16804;SDS011;8520;50.102;20.010;2023-10-13T10:38:11;17.10;;;15.50;;
16804;SDS011;8520;50.102;20.010;2023-10-13T10:40:49;15.40;;;14.15;;
16804;SDS011;8520;50.102;20.010;2023-10-13T10:43:24;15.90;;;14.65;;
16804;SDS011;8520;50.102;20.010;2023-10-13T10:45:59;14.18;;;13.18;;
16804;SDS011;8520;50.102;20.010;2023-10-13T10:48:30;16.08;;;14.90;;
16804;SDS011;8520;50.102;20.010;2023-10-13T10:51:05;14.82;;;13.85;;
16804;SDS011;8520;50.102;20.010;2023-10-13T10:53:41;16.60;;;15.35;;
16804;SDS011;8520;50.102;20.010;2023-10-13T10:56:13;15.93;;;14.60;;
16804;SDS011;8520;50.102;20.010;2023-10-13T10:59:04;16.98;;;15.38;;
16804;SDS011;8520;50.102;20.010;2023-10-13T11:01:33;16.50;;;15.30;;
16804;SDS011;8520;50.102;20.010;2023-10-13T11:04:06;14.57;;;13.63;;
16804;SDS011;8520;50.102;20.010;2023-10-13T11:06:46;14.50;;;13.35;;
16804;SDS011;8520;50.102;20.010;2023-10-13T11:09:14;13.88;;;12.98;;
16804;SDS011;8520;50.102;20.010;2023-10-13T11:12:08;13.40;;;12.30;;
16804;SDS011;8520;50.102;20.010;2023-10-13T11:14:41;13.50;;;12.60;;
16804;SDS011;8520;50.102;20.010;2023-10-13T11:17:09;12.57;;;11.65;;
16804;SDS011;8520;50.102;20.010;2023-10-13T11:19:46;12.43;;;11.32;;
16804;SDS011;8520;50.102;20.010;2023-10-13T11:22:15;10.90;;;10.10;;
16804;SDS011;8520;50.102;20.010;2023-10-13T11:24:59;12.02;;;11.07;;
16804;SDS011;8520;50.102;20.010;2023-10-13T11:27:29;11.88;;;10.85;;
16804;SDS011;8520;50.102;20.010;2023-10-13T11:30:11;10.02;;;9.38;;
16804;SDS011;8520;50.102;20.010;2023-10-13T11:32:41;8.88;;;8.18;;
16804;SDS011;8520;50.102;20.010;2023-10-13T11:35:11;9.55;;;8.75;;
16804;SDS011;8520;50.102;20.010;2023-10-13T11:37:47;9.55;;;8.43;;
16804;SDS011;8520;50.102;20.010;2023-10-13T11:40:29;9.00;;;8.20;;
16804;SDS011;8520;50.102;20.010;2023-10-13T11:43:11;8.68;;;7.95;;
16804;SDS011;8520;50.102;20.010;2023-10-13T11:45:42;8.32;;;7.55;;
16804;SDS011;8520;50.102;20.010;2023-10-13T11:48:22;8.18;;;7.47;;
16804;SDS011;8520;50.102;20.010;2023-10-13T11:51:02;10.10;;;7.35;;
16804;SDS011;8520;50.102;20.010;2023-10-13T11:53:33;6.68;;;6.07;;
16804;SDS011;8520;50.102;20.010;2023-10-13T11:56:02;7.68;;;6.07;;
16804;SDS011;8520;50.102;20.010;2023-10-13T11:58:35;7.05;;;6.50;;
16804;SDS011;8520;50.102;20.010;2023-10-13T12:01:03;7.32;;;6.00;;
16804;SDS011;8520;50.102;20.010;2023-10-13T12:03:47;10.25;;;6.85;;
16804;SDS011;8520;50.102;20.010;2023-10-13T12:06:34;7.10;;;6.50;;
16804;SDS011;8520;50.102;20.010;2023-10-13T12:09:13;6.38;;;5.78;;
16804;SDS011;8520;50.102;20.010;2023-10-13T12:12:07;6.32;;;5.82;;
16804;SDS011;8520;50.102;20.010;2023-10-13T12:14:35;6.45;;;5.95;;
16804;SDS011;8520;50.102;20.010;2023-10-13T12:17:04;6.85;;;6.25;;
16804;SDS011;8520;50.102;20.010;2023-10-13T12:19:37;6.30;;;5.80;;
16804;SDS011;8520;50.102;20.010;2023-10-13T12:22:07;6.40;;;5.78;;
16804;SDS011;8520;50.102;20.010;2023-10-13T12:24:43;8.73;;;6.40;;
16804;SDS011;8520;50.102;20.010;2023-10-13T12:27:20;7.18;;;6.47;;
16804;SDS011;8520;50.102;20.010;2023-10-13T12:29:50;7.68;;;6.65;;
16804;SDS011;8520;50.102;20.010;2023-10-13T12:32:19;7.15;;;6.45;;
16804;SDS011;8520;50.102;20.010;2023-10-13T12:34:49;7.13;;;6.60;;
16804;SDS011;8520;50.102;20.010;2023-10-13T12:37:45;6.35;;;5.78;;
16804;SDS011;8520;50.102;20.010;2023-10-13T12:40:19;6.82;;;6.30;;
16804;SDS011;8520;50.102;20.010;2023-10-13T12:43:04;7.35;;;6.05;;
16804;SDS011;8520;50.102;20.010;2023-10-13T12:45:50;6.88;;;6.28;;
16804;SDS011;8520;50.102;20.010;2023-10-13T12:48:37;7.60;;;6.93;;
16804;SDS011;8520;50.102;20.010;2023-10-13T12:51:22;6.30;;;5.78;;
16804;SDS011;8520;50.102;20.010;2023-10-13T12:54:05;6.90;;;6.30;;
16804;SDS011;8520;50.102;20.010;2023-10-13T12:56:42;6.50;;;6.10;;
16804;SDS011;8520;50.102;20.010;2023-10-13T12:59:11;6.85;;;6.35;;
16804;SDS011;8520;50.102;20.010;2023-10-13T13:01:41;8.05;;;7.32;;
16804;SDS011;8520;50.102;20.010;2023-10-13T13:04:10;7.50;;;6.65;;
16804;SDS011;8520;50.102;20.010;2023-10-13T13:06:45;7.03;;;6.50;;
16804;SDS011;8520;50.102;20.010;2023-10-13T13:09:15;7.50;;;6.90;;
16804;SDS011;8520;50.102;20.010;2023-10-13T13:11:52;6.32;;;5.93;;
16804;SDS011;8520;50.102;20.010;2023-10-13T13:14:24;7.47;;;6.78;;
16804;SDS011;8520;50.102;20.010;2023-10-13T13:16:56;6.32;;;5.82;;
16804;SDS011;8520;50.102;20.010;2023-10-13T13:19:32;7.72;;;7.05;;
16804;SDS011;8520;50.102;20.010;2023-10-13T13:22:03;9.02;;;6.30;;
16804;SDS011;8520;50.102;20.010;2023-10-13T13:24:33;6.60;;;6.00;;
16804;SDS011;8520;50.102;20.010;2023-10-13T13:27:01;7.05;;;6.55;;
16804;SDS011;8520;50.102;20.010;2023-10-13T13:29:31;7.18;;;6.55;;
16804;SDS011;8520;50.102;20.010;2023-10-13T13:31:59;6.72;;;6.07;;
16804;SDS011;8520;50.102;20.010;2023-10-13T13:34:28;5.97;;;5.57;;
16804;SDS011;8520;50.102;20.010;2023-10-13T13:36:56;6.97;;;6.30;;
16804;SDS011;8520;50.102;20.010;2023-10-13T13:39:27;6.60;;;6.10;;
16804;SDS011;8520;50.102;20.010;2023-10-13T13:41:58;6.88;;;6.28;;
16804;SDS011;8520;50.102;20.010;2023-10-13T13:44:26;7.32;;;6.72;;
16804;SDS011;8520;50.102;20.010;2023-10-13T13:47:02;6.78;;;6.38;;
16804;SDS011;8520;50.102;20.010;2023-10-13T13:49:38;6.50;;;6.10;;
16804;SDS011;8520;50.102;20.010;2023-10-13T13:52:07;6.82;;;6.25;;
16804;SDS011;8520;50.102;20.010;2023-10-13T13:54:36;6.18;;;5.78;;
16804;SDS011;8520;50.102;20.010;2023-10-13T13:57:08;8.00;;;7.20;;
16804;SDS011;8520;50.102;20.010;2023-10-13T13:59:36;7.00;;;6.40;;
16804;SDS011;8520;50.102;20.010;2023-10-13T14:02:04;6.72;;;6.03;;
16804;SDS011;8520;50.102;20.010;2023-10-13T14:04:46;6.38;;;5.97;;
16804;SDS011;8520;50.102;20.010;2023-10-13T14:07:17;6.70;;;6.07;;
16804;SDS011;8520;50.102;20.010;2023-10-13T14:09:46;7.45;;;6.03;;
16804;SDS011;8520;50.102;20.010;2023-10-13T14:12:19;5.95;;;5.45;;
16804;SDS011;8520;50.102;20.010;2023-10-13T14:14:56;6.35;;;5.82;;
16804;SDS011;8520;50.102;20.010;2023-10-13T14:17:24;6.20;;;5.70;;
16804;SDS011;8520;50.102;20.010;2023-10-13T14:19:56;6.20;;;5.80;;
16804;SDS011;8520;50.102;20.010;2023-10-13T14:22:24;7.20;;;6.57;;
16804;SDS011;8520;50.102;20.010;2023-10-13T14:24:53;6.65;;;6.15;;
16804;SDS011;8520;50.102;20.010;2023-10-13T14:27:23;6.63;;;6.13;;
16804;SDS011;8520;50.102;20.010;2023-10-13T14:29:52;6.88;;;6.28;;
16804;SDS011;8520;50.102;20.010;2023-10-13T14:32:20;6.82;;;6.20;;
16804;SDS011;8520;50.102;20.010;2023-10-13T14:34:51;6.65;;;6.05;;
16804;SDS011;8520;50.102;20.010;2023-10-13T14:37:23;9.07;;;6.90;;
16804;SDS011;8520;50.102;20.010;2023-10-13T14:39:57;7.43;;;6.70;;
16804;SDS011;8520;50.102;20.010;2023-10-13T14:42:28;7.63;;;6.93;;
16804;SDS011;8520;50.102;20.010;2023-10-13T14:45:02;7.40;;;6.80;;
16804;SDS011;8520;50.102;20.010;2023-10-13T14:47:39;6.55;;;5.95;;
16804;SDS011;8520;50.102;20.010;2023-10-13T14:50:07;7.70;;;7.20;;
16804;SDS011;8520;50.102;20.010;2023-10-13T14:52:41;7.38;;;6.70;;
16804;SDS011;8520;50.102;20.010;2023-10-13T14:55:10;7.30;;;6.70;;
16804;SDS011;8520;50.102;20.010;2023-10-13T14:57:47;6.55;;;6.07;;
16804;SDS011;8520;50.102;20.010;2023-10-13T15:00:18;6.63;;;6.05;;
16804;SDS011;8520;50.102;20.010;2023-10-13T15:02:52;6.45;;;5.82;;
16804;SDS011;8520;50.102;20.010;2023-10-13T15:05:21;6.68;;;6.18;;
16804;SDS011;8520;50.102;20.010;2023-10-13T15:07:49;7.05;;;6.35;;
16804;SDS011;8520;50.102;20.010;2023-10-13T15:10:18;7.07;;;6.38;;